createdAt,value
2019-03-28T00:01:42.707Z,31.77
2019-03-28T00:04:11.208Z,32.03
2019-03-28T00:06:39.877Z,31.47
2019-03-28T00:09:09.232Z,34.00
2019-03-28T00:11:40.698Z,32.60
2019-03-28T00:14:09.256Z,31.97
2019-03-28T00:16:37.862Z,31.33
2019-03-28T00:19:06.437Z,30.57
2019-03-28T00:21:34.926Z,32.80
2019-03-28T00:24:10.989Z,29.10
2019-03-28T00:26:39.664Z,35.07
2019-03-28T00:29:08.216Z,32.57
2019-03-28T00:31:36.827Z,33.83
2019-03-28T00:34:08.143Z,30.93
2019-03-28T00:36:36.761Z,29.70
2019-03-28T00:39:07.198Z,28.57
2019-03-28T00:41:35.845Z,22.37
2019-03-28T00:44:04.477Z,23.77
2019-03-28T00:46:33.051Z,21.97
2019-03-28T00:49:01.684Z,21.93
2019-03-28T00:51:30.330Z,21.27
2019-03-28T00:53:58.961Z,19.93
2019-03-28T00:56:27.664Z,21.10
2019-03-28T00:58:56.277Z,19.27
2019-03-28T01:01:24.835Z,19.37
2019-03-28T01:03:53.513Z,17.97
2019-03-28T01:06:22.144Z,18.40
2019-03-28T01:08:50.708Z,20.27
2019-03-28T01:11:19.310Z,19.47
2019-03-28T01:13:48.014Z,21.73
2019-03-28T01:16:16.703Z,19.73
2019-03-28T01:18:45.482Z,20.83
2019-03-28T01:21:14.136Z,24.33
2019-03-28T01:23:42.745Z,18.40
2019-03-28T01:26:11.378Z,24.27
2019-03-28T01:28:40.050Z,20.97
2019-03-28T01:31:08.619Z,23.27
2019-03-28T01:33:37.190Z,25.67
2019-03-28T01:36:05.885Z,21.93
2019-03-28T01:38:34.454Z,26.07
2019-03-28T01:41:03.014Z,28.67
2019-03-28T01:43:31.660Z,22.97
2019-03-28T01:46:00.304Z,25.17
2019-03-28T01:48:31.625Z,24.80
2019-03-28T01:51:00.263Z,26.37
2019-03-28T01:53:28.962Z,27.67
2019-03-28T01:55:57.567Z,31.73
2019-03-28T01:58:26.122Z,34.47
2019-03-28T02:00:54.804Z,32.53
2019-03-28T02:03:23.478Z,35.67
2019-03-28T02:05:52.045Z,35.50
2019-03-28T02:08:20.716Z,30.77
2019-03-28T02:10:49.553Z,37.27
2019-03-28T02:13:19.611Z,33.37
2019-03-28T02:15:48.172Z,39.13
2019-03-28T02:18:16.772Z,36.07
2019-03-28T02:20:45.423Z,38.20
2019-03-28T02:23:14.051Z,35.43
2019-03-28T02:25:43.432Z,37.03
2019-03-28T02:28:12.086Z,36.17
2019-03-28T02:30:40.716Z,38.90
2019-03-28T02:33:09.329Z,45.43
2019-03-28T02:35:37.973Z,44.50
2019-03-28T02:38:06.569Z,42.53
2019-03-28T02:40:35.207Z,47.70
2019-03-28T02:43:03.891Z,42.90
2019-03-28T02:45:32.522Z,49.30
2019-03-28T02:48:01.776Z,49.27
2019-03-28T02:50:30.685Z,45.07
2019-03-28T02:52:59.226Z,44.30
2019-03-28T02:55:27.894Z,47.37
2019-03-28T02:57:56.446Z,48.20
2019-03-28T03:00:25.088Z,44.30
2019-03-28T03:02:53.658Z,48.63
2019-03-28T03:05:22.287Z,47.20
2019-03-28T03:07:50.962Z,49.93
2019-03-28T03:10:19.653Z,48.83
2019-03-28T03:12:48.296Z,45.73
2019-03-28T03:15:16.926Z,47.13
2019-03-28T03:17:45.597Z,49.60
2019-03-28T03:20:14.429Z,50.47
2019-03-28T03:22:43.034Z,50.23
2019-03-28T03:25:11.671Z,46.10
2019-03-28T03:27:56.363Z,51.20
2019-03-28T03:30:10.807Z,53.10
2019-03-28T03:32:39.398Z,50.97
2019-03-28T03:35:08.500Z,56.10
2019-03-28T03:37:37.081Z,55.67
2019-03-28T03:40:08.467Z,48.83
2019-03-28T03:42:37.128Z,47.57
2019-03-28T03:45:09.060Z,40.47
2019-03-28T03:47:38.177Z,39.50
2019-03-28T03:50:07.531Z,36.80
2019-03-28T03:52:36.128Z,32.10
2019-03-28T03:55:06.570Z,29.83
2019-03-28T03:57:35.156Z,31.37
2019-03-28T04:00:05.752Z,24.93
2019-03-28T04:02:34.427Z,28.53
2019-03-28T04:05:02.998Z,24.70
2019-03-28T04:07:31.712Z,20.10
2019-03-28T04:10:00.594Z,22.40
2019-03-28T04:12:29.259Z,20.03
2019-03-28T04:14:57.943Z,24.47
2019-03-28T04:17:26.507Z,25.83
2019-03-28T04:19:58.770Z,18.17
2019-03-28T04:22:27.567Z,23.03
2019-03-28T04:24:56.205Z,19.37
2019-03-28T04:27:24.780Z,21.00
2019-03-28T04:29:53.465Z,18.37
2019-03-28T04:32:22.086Z,17.47
2019-03-28T04:34:50.768Z,16.27
2019-03-28T04:37:19.382Z,13.57
2019-03-28T04:39:48.058Z,14.00
2019-03-28T04:42:16.706Z,12.57
2019-03-28T04:44:45.265Z,11.60
2019-03-28T04:47:13.777Z,14.23
2019-03-28T04:49:42.337Z,10.83
2019-03-28T04:52:11.011Z,15.73
2019-03-28T04:54:39.509Z,12.27
2019-03-28T04:57:08.035Z,11.07
2019-03-28T04:59:36.529Z,15.60
2019-03-28T05:02:05.427Z,15.50
2019-03-28T05:04:34.020Z,15.30
2019-03-28T05:07:02.570Z,16.20
2019-03-28T05:09:31.997Z,10.67
2019-03-28T05:12:00.670Z,9.53
2019-03-28T05:14:29.232Z,12.53
2019-03-28T05:16:57.845Z,12.00
2019-03-28T05:19:26.442Z,10.70
2019-03-28T05:21:55.074Z,10.47
2019-03-28T05:24:25.481Z,11.37
2019-03-28T05:26:54.171Z,10.90
2019-03-28T05:29:22.799Z,8.00
2019-03-28T05:31:51.450Z,9.03
2019-03-28T05:34:19.968Z,11.50
2019-03-28T05:36:51.920Z,8.70
2019-03-28T05:39:19.653Z,6.47
2019-03-28T05:41:48.555Z,9.27
2019-03-28T05:44:17.110Z,14.93
2019-03-28T05:46:45.781Z,8.57
2019-03-28T05:49:14.453Z,11.53
2019-03-28T05:51:42.943Z,9.30
2019-03-28T05:54:11.468Z,9.87
2019-03-28T05:56:40.094Z,7.83
2019-03-28T05:59:11.210Z,7.73
2019-03-28T06:01:39.115Z,11.63
2019-03-28T06:04:08.367Z,8.90
2019-03-28T06:06:37.036Z,9.43
2019-03-28T06:09:07.581Z,30.97
2019-03-28T06:11:42.548Z,16.77
2019-03-28T06:14:11.325Z,19.00
2019-03-28T06:16:43.530Z,23.63
2019-03-28T06:19:12.422Z,10.77
2019-03-28T06:21:44.006Z,10.40
2019-03-28T06:24:14.362Z,9.53
2019-03-28T06:26:43.314Z,7.47
2019-03-28T06:29:23.166Z,6.93
2019-03-28T06:31:54.581Z,7.30
2019-03-28T06:34:13.063Z,13.57
2019-03-28T06:36:44.748Z,8.10
2019-03-28T06:39:21.810Z,13.10
2019-03-28T06:41:50.922Z,11.23
2019-03-28T06:44:19.762Z,9.93
2019-03-28T06:46:48.437Z,17.37
2019-03-28T06:49:17.170Z,15.80
2019-03-28T06:51:45.799Z,9.23
2019-03-28T06:54:16.006Z,8.50
2019-03-28T06:56:44.963Z,11.37
2019-03-28T06:59:13.668Z,7.90
2019-03-28T07:01:46.798Z,15.80
2019-03-28T07:04:21.824Z,10.67
2019-03-28T07:06:52.680Z,8.47
2019-03-28T07:09:26.155Z,12.47
2019-03-28T07:12:01.098Z,9.37
2019-03-28T07:14:31.858Z,14.27
2019-03-28T07:17:00.685Z,10.67
2019-03-28T07:19:29.324Z,21.57
2019-03-28T07:21:58.038Z,7.40
2019-03-28T07:24:26.690Z,9.10
2019-03-28T07:26:55.474Z,14.33
2019-03-28T07:29:27.554Z,14.53
2019-03-28T07:31:57.875Z,14.87
2019-03-28T07:34:26.664Z,20.30
2019-03-28T07:36:55.603Z,11.43
2019-03-28T07:39:32.037Z,11.67
2019-03-28T07:42:01.029Z,12.93
2019-03-28T07:44:29.847Z,11.93
2019-03-28T07:46:58.752Z,73.73
2019-03-28T07:49:30.798Z,15.03
2019-03-28T07:51:59.799Z,14.30
2019-03-28T07:54:28.893Z,16.07
2019-03-28T07:56:57.760Z,17.60
2019-03-28T07:59:26.501Z,10.93
2019-03-28T08:01:55.146Z,24.73
2019-03-28T08:04:23.681Z,11.40
2019-03-28T08:06:52.316Z,24.63
2019-03-28T08:09:20.863Z,10.57
2019-03-28T08:11:49.421Z,13.27
2019-03-28T08:14:18.052Z,15.27
2019-03-28T08:16:46.720Z,13.90
2019-03-28T08:19:15.350Z,14.20
2019-03-28T08:21:43.966Z,13.27
2019-03-28T08:24:12.662Z,20.43
2019-03-28T08:26:41.779Z,16.60
2019-03-28T08:29:10.622Z,15.20
2019-03-28T08:31:41.814Z,14.23
2019-03-28T08:34:12.334Z,10.77
2019-03-28T08:36:41.485Z,11.17
2019-03-28T08:39:10.410Z,11.70
2019-03-28T08:41:39.427Z,14.73
2019-03-28T08:44:08.238Z,16.27
2019-03-28T08:46:37.373Z,11.53
2019-03-28T08:49:07.230Z,12.50
2019-03-28T08:51:39.242Z,13.63
2019-03-28T08:54:08.160Z,11.47
2019-03-28T08:56:38.521Z,13.17
2019-03-28T08:59:09.836Z,11.57
2019-03-28T09:01:41.433Z,15.87
2019-03-28T09:04:10.184Z,13.43
2019-03-28T09:06:40.828Z,15.40
2019-03-28T09:09:12.179Z,15.27
2019-03-28T09:11:45.875Z,14.20
2019-03-28T09:14:14.658Z,10.93
2019-03-28T09:16:46.198Z,19.40
2019-03-28T09:19:14.868Z,15.77
2019-03-28T09:21:43.646Z,14.57
2019-03-28T09:24:12.409Z,10.70
2019-03-28T09:26:41.134Z,16.63
2019-03-28T09:29:09.883Z,26.60
2019-03-28T09:31:41.599Z,13.60
2019-03-28T09:34:10.430Z,20.80
2019-03-28T09:36:39.177Z,16.27
2019-03-28T09:39:10.256Z,11.37
2019-03-28T09:41:40.403Z,13.33
2019-03-28T09:44:09.108Z,19.80
2019-03-28T09:46:37.904Z,15.20
2019-03-28T09:49:06.606Z,11.30
2019-03-28T09:51:35.512Z,11.33
2019-03-28T09:54:04.258Z,11.27
2019-03-28T09:56:37.297Z,15.27
2019-03-28T09:59:06.028Z,12.90
2019-03-28T10:01:34.703Z,19.70
2019-03-28T10:04:06.291Z,13.37
2019-03-28T10:06:33.685Z,11.67
2019-03-28T10:09:02.360Z,13.77
2019-03-28T10:11:31.000Z,10.17
2019-03-28T10:13:59.618Z,11.27
2019-03-28T10:16:28.464Z,12.97
2019-03-28T10:18:57.099Z,20.40
2019-03-28T10:21:25.846Z,24.17
2019-03-28T10:23:54.475Z,13.57
2019-03-28T10:26:23.446Z,14.33
2019-03-28T10:28:55.261Z,15.97
2019-03-28T10:31:23.893Z,12.53
2019-03-28T10:33:52.615Z,22.30
2019-03-28T10:36:21.356Z,20.00
2019-03-28T10:38:50.153Z,14.93
2019-03-28T10:41:18.814Z,15.93
2019-03-28T10:43:47.548Z,14.47
2019-03-28T10:46:16.259Z,20.90
2019-03-28T10:48:44.932Z,16.73
2019-03-28T10:51:13.563Z,14.67
2019-03-28T10:53:42.267Z,21.60
2019-03-28T10:56:21.480Z,8.40
2019-03-28T10:58:41.361Z,16.13
2019-03-28T11:01:10.107Z,12.00
2019-03-28T11:03:38.820Z,13.67
2019-03-28T11:06:07.643Z,16.07
2019-03-28T11:08:36.750Z,14.87
2019-03-28T11:11:05.598Z,14.37
2019-03-28T11:13:34.623Z,14.53
2019-03-28T11:16:03.765Z,13.13
2019-03-28T11:18:32.950Z,14.77
2019-03-28T11:21:02.114Z,20.43
2019-03-28T11:23:31.162Z,15.77
2019-03-28T11:26:00.486Z,18.07
2019-03-28T11:28:29.770Z,14.03
2019-03-28T11:30:59.058Z,17.30
2019-03-28T11:33:28.181Z,11.33
2019-03-28T11:35:59.382Z,12.93
2019-03-28T11:38:30.865Z,11.93
2019-03-28T11:41:00.105Z,13.90
2019-03-28T11:43:31.219Z,12.27
2019-03-28T11:46:01.931Z,13.40
2019-03-28T11:48:31.595Z,16.90
2019-03-28T11:51:01.175Z,13.83
2019-03-28T11:53:30.028Z,10.47
2019-03-28T11:56:00.659Z,18.20
2019-03-28T11:58:29.467Z,14.53
2019-03-28T12:01:01.781Z,16.67
2019-03-28T12:03:36.402Z,13.10
2019-03-28T12:06:16.946Z,12.77
2019-03-28T12:08:46.135Z,14.10
2019-03-28T12:11:16.573Z,14.07
2019-03-28T12:13:45.507Z,13.67
2019-03-28T12:16:17.348Z,11.95
2019-03-28T12:18:46.202Z,10.63
2019-03-28T12:21:15.101Z,11.60
2019-03-28T12:23:44.018Z,13.55
2019-03-28T12:26:14.428Z,18.90
2019-03-28T12:28:43.327Z,13.70
2019-03-28T12:31:12.226Z,12.13
2019-03-28T12:33:43.777Z,14.90
2019-03-28T12:36:12.628Z,18.00
2019-03-28T12:38:41.479Z,12.40
2019-03-28T12:41:13.262Z,14.10
2019-03-28T12:43:42.160Z,11.68
2019-03-28T12:46:13.632Z,8.25
2019-03-28T12:48:42.735Z,11.88
2019-03-28T12:51:11.543Z,14.55
2019-03-28T12:53:43.660Z,12.55
2019-03-28T12:56:14.215Z,15.23
2019-03-28T12:58:45.736Z,10.57
2019-03-28T13:01:14.571Z,13.97
2019-03-28T13:03:45.733Z,7.13
2019-03-28T13:06:13.720Z,13.50
2019-03-28T13:08:42.379Z,8.65
2019-03-28T13:11:10.983Z,8.70
2019-03-28T13:13:39.632Z,11.30
2019-03-28T13:16:08.265Z,13.10
2019-03-28T13:18:36.864Z,7.95
2019-03-28T13:21:13.361Z,12.73
2019-03-28T13:23:35.866Z,12.45
2019-03-28T13:26:04.432Z,12.80
2019-03-28T13:28:33.033Z,8.40
2019-03-28T13:31:01.717Z,9.98
2019-03-28T13:33:30.280Z,10.78
2019-03-28T13:35:59.057Z,11.73
2019-03-28T13:38:27.815Z,12.28
2019-03-28T13:40:56.623Z,11.45
2019-03-28T13:43:25.508Z,8.68
2019-03-28T13:45:54.199Z,8.85
2019-03-28T13:48:23.015Z,8.03
2019-03-28T13:50:54.672Z,9.68
2019-03-28T13:53:22.381Z,11.88
2019-03-28T13:55:52.240Z,12.05
2019-03-28T13:58:21.183Z,11.17
2019-03-28T14:00:50.007Z,12.47
2019-03-28T14:03:18.771Z,15.87
2019-03-28T14:05:47.444Z,23.37
2019-03-28T14:08:16.229Z,7.97
2019-03-28T14:10:44.993Z,12.50
2019-03-28T14:13:13.741Z,12.13
2019-03-28T14:15:42.504Z,9.23
2019-03-28T14:18:11.249Z,11.07
2019-03-28T14:20:39.976Z,16.33
2019-03-28T14:23:08.780Z,14.70
2019-03-28T14:25:37.529Z,47.00
2019-03-28T14:28:06.261Z,9.50
2019-03-28T14:30:34.907Z,11.30
2019-03-28T14:33:11.178Z,11.33
2019-03-28T14:35:33.960Z,22.50
2019-03-28T14:38:02.595Z,13.93
2019-03-28T14:40:31.278Z,11.70
2019-03-28T14:42:59.851Z,12.33
2019-03-28T14:45:28.497Z,12.07
2019-03-28T14:47:57.125Z,13.90
2019-03-28T14:50:37.157Z,12.33
2019-03-28T14:53:06.225Z,10.43
2019-03-28T14:55:36.290Z,16.47
2019-03-28T14:58:06.901Z,15.13
2019-03-28T15:00:47.526Z,11.43
2019-03-28T15:03:25.844Z,11.40
2019-03-28T15:05:46.888Z,11.17
2019-03-28T15:08:15.598Z,10.67
2019-03-28T15:10:44.415Z,10.07
2019-03-28T15:13:13.174Z,19.37
2019-03-28T15:15:41.731Z,7.17
2019-03-28T15:18:10.400Z,11.33
2019-03-28T15:20:38.979Z,11.03
2019-03-28T15:23:07.603Z,16.80
2019-03-28T15:25:36.229Z,13.03
2019-03-28T15:28:04.896Z,12.40
2019-03-28T15:30:33.520Z,23.50
2019-03-28T15:33:02.206Z,14.80
2019-03-28T15:35:30.757Z,12.77
2019-03-28T15:37:59.391Z,9.53
2019-03-28T15:40:28.063Z,9.93
2019-03-28T15:42:56.703Z,10.17
2019-03-28T15:45:25.953Z,9.10
2019-03-28T15:47:54.562Z,10.27
2019-03-28T15:50:23.187Z,16.83
2019-03-28T15:52:51.782Z,10.10
2019-03-28T15:55:20.416Z,13.30
2019-03-28T15:57:49.065Z,14.70
2019-03-28T16:00:18.393Z,10.67
2019-03-28T16:02:47.322Z,11.63
2019-03-28T16:05:16.010Z,19.47
2019-03-28T16:07:44.577Z,11.63
2019-03-28T16:10:15.210Z,9.83
2019-03-28T16:12:43.972Z,9.63
2019-03-28T16:15:13.140Z,13.77
2019-03-28T16:17:41.766Z,12.80
2019-03-28T16:20:11.136Z,20.17
2019-03-28T16:22:39.687Z,12.17
2019-03-28T16:25:08.496Z,13.57
2019-03-28T16:27:37.038Z,23.03
2019-03-28T16:30:08.630Z,20.37
2019-03-28T16:32:37.260Z,15.13
2019-03-28T16:35:07.590Z,14.13
2019-03-28T16:37:36.200Z,15.57
2019-03-28T16:40:07.249Z,14.23
2019-03-28T16:42:35.796Z,10.50
2019-03-28T16:45:07.118Z,16.10
2019-03-28T16:47:35.747Z,15.03
2019-03-28T16:50:05.072Z,10.53
2019-03-28T16:52:33.627Z,10.67
2019-03-28T16:55:08.270Z,12.77
2019-03-28T16:57:36.944Z,13.20
2019-03-28T17:00:14.033Z,12.97
2019-03-28T17:02:42.707Z,14.30
2019-03-28T17:05:11.531Z,12.93
2019-03-28T17:07:40.165Z,13.97
2019-03-28T17:10:09.393Z,49.30
2019-03-28T17:12:37.929Z,49.37
2019-03-28T17:15:08.662Z,13.40
2019-03-28T17:17:38.481Z,43.90
2019-03-28T17:20:07.851Z,34.33
2019-03-28T17:22:36.478Z,20.60
2019-03-28T17:25:06.629Z,12.80
2019-03-28T17:27:35.178Z,19.90
2019-03-28T17:30:07.173Z,16.73
2019-03-28T17:32:36.750Z,18.83
2019-03-28T17:35:06.258Z,18.70
2019-03-28T17:37:40.929Z,18.17
2019-03-28T17:40:09.661Z,19.30
2019-03-28T17:42:41.022Z,18.43
2019-03-28T17:45:09.748Z,21.47
2019-03-28T17:47:38.458Z,44.67
2019-03-28T17:50:10.272Z,73.87
2019-03-28T17:52:38.959Z,73.77
2019-03-28T17:55:07.777Z,82.03
2019-03-28T17:57:36.579Z,122.53
2019-03-28T18:00:08.871Z,169.07
2019-03-28T18:02:37.574Z,136.20
2019-03-28T18:05:09.713Z,115.83
2019-03-28T18:07:37.524Z,121.40
2019-03-28T18:10:07.556Z,137.40
2019-03-28T18:12:36.197Z,106.47
2019-03-28T18:15:08.542Z,58.90
2019-03-28T18:17:37.219Z,59.00
2019-03-28T18:20:09.415Z,81.37
2019-03-28T18:22:38.163Z,78.07
2019-03-28T18:25:09.849Z,75.83
2019-03-28T18:27:38.480Z,80.43
2019-03-28T18:30:08.660Z,83.00
2019-03-28T18:32:39.435Z,63.47
2019-03-28T18:35:08.447Z,56.07
2019-03-28T18:37:37.199Z,58.03
2019-03-28T18:40:07.578Z,66.77
2019-03-28T18:42:36.219Z,57.57
2019-03-28T18:45:08.133Z,55.90
2019-03-28T18:47:36.783Z,59.20
2019-03-28T18:50:07.831Z,66.33
2019-03-28T18:52:36.459Z,67.23
2019-03-28T18:55:06.898Z,77.20
2019-03-28T18:57:38.240Z,35.83
2019-03-28T19:00:08.877Z,48.20
2019-03-28T19:02:37.524Z,41.73
2019-03-28T19:05:19.170Z,44.37
2019-03-28T19:07:37.011Z,30.37
2019-03-28T19:10:07.104Z,29.03
2019-03-28T19:12:35.775Z,35.87
2019-03-28T19:15:06.013Z,47.27
2019-03-28T19:17:34.648Z,54.90
2019-03-28T19:20:04.927Z,51.53
2019-03-28T19:22:33.562Z,54.27
2019-03-28T19:25:02.203Z,46.30
2019-03-28T19:27:30.954Z,40.80
2019-03-28T19:29:59.440Z,51.00
2019-03-28T19:32:29.863Z,53.93
2019-03-28T19:34:58.821Z,51.90
2019-03-28T19:37:29.251Z,58.13
2019-03-28T19:39:57.926Z,57.57
2019-03-28T19:42:26.557Z,65.30
2019-03-28T19:44:55.529Z,66.40
2019-03-28T19:47:24.164Z,77.10
2019-03-28T19:49:52.795Z,94.03
2019-03-28T19:52:21.433Z,106.23
2019-03-28T19:54:50.080Z,93.43
2019-03-28T19:57:21.761Z,50.03
2019-03-28T19:59:50.463Z,46.63
2019-03-28T20:02:19.843Z,49.77
2019-03-28T20:04:48.518Z,80.27
2019-03-28T20:07:21.746Z,58.37
2019-03-28T20:09:47.484Z,61.00
2019-03-28T20:12:16.120Z,47.37
2019-03-28T20:14:44.759Z,39.70
2019-03-28T20:17:13.409Z,43.90
2019-03-28T20:19:42.090Z,36.63
2019-03-28T20:22:10.725Z,39.10
2019-03-28T20:24:40.095Z,39.53
2019-03-28T20:27:09.405Z,31.83
2019-03-28T20:29:40.004Z,30.17
2019-03-28T20:32:09.795Z,26.10
2019-03-28T20:34:38.512Z,24.23
2019-03-28T20:37:08.730Z,24.83
2019-03-28T20:39:37.434Z,24.07
2019-03-28T20:42:06.078Z,26.07
2019-03-28T20:44:34.656Z,24.23
2019-03-28T20:47:03.279Z,22.70
2019-03-28T20:49:31.845Z,23.83
2019-03-28T20:52:00.522Z,20.10
2019-03-28T20:54:29.013Z,22.17
2019-03-28T20:56:58.028Z,20.90
2019-03-28T20:59:29.752Z,16.60
2019-03-28T21:01:58.392Z,16.50
2019-03-28T21:04:31.498Z,18.07
2019-03-28T21:06:58.772Z,19.47
2019-03-28T21:09:27.453Z,13.27
2019-03-28T21:11:58.807Z,14.57
2019-03-28T21:14:28.023Z,14.60
2019-03-28T21:16:58.318Z,13.10
2019-03-28T21:19:27.074Z,19.40
2019-03-28T21:21:55.752Z,15.17
2019-03-28T21:24:24.392Z,15.47
2019-03-28T21:26:53.066Z,10.43
2019-03-28T21:29:21.754Z,17.77
2019-03-28T21:31:51.900Z,13.03
2019-03-28T21:34:21.134Z,15.47
2019-03-28T21:36:49.842Z,12.20
2019-03-28T21:39:18.375Z,14.43
2019-03-28T21:41:47.005Z,15.57
2019-03-28T21:44:15.552Z,13.10
2019-03-28T21:46:44.127Z,16.60
2019-03-28T21:49:12.790Z,16.97
2019-03-28T21:51:41.275Z,17.43
2019-03-28T21:54:09.952Z,18.23
2019-03-28T21:56:41.299Z,16.37
2019-03-28T21:59:08.852Z,17.17
2019-03-28T22:01:40.490Z,12.70
2019-03-28T22:04:09.276Z,13.93
2019-03-28T22:06:43.191Z,16.57
2019-03-28T22:09:08.222Z,13.63
2019-03-28T22:11:39.545Z,12.67
2019-03-28T22:14:08.085Z,15.17
2019-03-28T22:16:43.858Z,11.23
2019-03-28T22:19:12.571Z,10.23
2019-03-28T22:21:41.192Z,10.53
2019-03-28T22:24:09.796Z,12.13
2019-03-28T22:26:38.501Z,8.93
2019-03-28T22:29:07.125Z,7.97
2019-03-28T22:31:35.773Z,11.60
2019-03-28T22:34:04.403Z,9.13
2019-03-28T22:36:32.965Z,13.57
2019-03-28T22:39:01.650Z,15.33
2019-03-28T22:41:30.317Z,13.33
2019-03-28T22:43:59.145Z,14.73
2019-03-28T22:46:27.718Z,10.67
2019-03-28T22:48:56.407Z,11.43
2019-03-28T22:51:25.045Z,10.60
2019-03-28T22:53:53.665Z,14.80
2019-03-28T22:56:22.938Z,10.53
2019-03-28T22:58:52.256Z,8.27
2019-03-28T23:01:22.253Z,12.00
2019-03-28T23:03:51.120Z,12.23
2019-03-28T23:06:20.084Z,15.90
2019-03-28T23:08:49.581Z,17.07
2019-03-28T23:11:18.538Z,11.03
2019-03-28T23:13:47.403Z,15.03
2019-03-28T23:16:16.665Z,17.93
2019-03-28T23:18:45.766Z,15.23
2019-03-28T23:21:15.790Z,12.60
2019-03-28T23:23:46.341Z,12.00
2019-03-28T23:26:15.230Z,13.90
2019-03-28T23:28:44.223Z,11.67
2019-03-28T23:31:13.779Z,16.63
2019-03-28T23:33:42.553Z,18.93
2019-03-28T23:36:11.445Z,11.90
2019-03-28T23:38:40.218Z,12.90
2019-03-28T23:41:09.113Z,13.60
2019-03-28T23:43:38.027Z,17.83
2019-03-28T23:46:06.927Z,10.87
2019-03-28T23:48:35.788Z,12.83
2019-03-28T23:51:05.064Z,14.60
2019-03-28T23:53:34.312Z,11.20
2019-03-28T23:56:05.445Z,12.30
2019-03-28T23:58:34.251Z,14.43
